sensor_id;sensor_type;location;lat;lon;timestamp;P1;durP1;ratioP1;P2;durP2;ratioP2
5026;SDS011;2532;52.480;13.354;2023-11-21T00:01:22;7.23;;;6.10;;
5026;SDS011;2532;52.480;13.354;2023-11-21T00:03:49;13.97;;;7.50;;
5026;SDS011;2532;52.480;13.354;2023-11-21T00:06:17;9.30;;;6.33;;
5026;SDS011;2532;52.480;13.354;2023-11-21T00:08:45;8.90;;;7.13;;
5026;SDS011;2532;52.480;13.354;2023-11-21T00:11:12;7.20;;;5.50;;
5026;SDS011;2532;52.480;13.354;2023-11-21T00:13:39;10.87;;;7.30;;
5026;SDS011;2532;52.480;13.354;2023-11-21T00:16:06;11.63;;;8.70;;
5026;SDS011;2532;52.480;13.354;2023-11-21T00:18:33;16.17;;;8.97;;
5026;SDS011;2532;52.480;13.354;2023-11-21T00:21:01;12.03;;;8.10;;
5026;SDS011;2532;52.480;13.354;2023-11-21T00:23:30;13.50;;;9.20;;
5026;SDS011;2532;52.480;13.354;2023-11-21T00:25:56;19.00;;;9.60;;
5026;SDS011;2532;52.480;13.354;2023-11-21T00:28:24;17.50;;;10.80;;
5026;SDS011;2532;52.480;13.354;2023-11-21T00:30:52;20.60;;;11.03;;
5026;SDS011;2532;52.480;13.354;2023-11-21T00:33:19;17.73;;;11.37;;
5026;SDS011;2532;52.480;13.354;2023-11-21T00:35:46;24.17;;;11.33;;
5026;SDS011;2532;52.480;13.354;2023-11-21T00:38:13;18.00;;;11.30;;
5026;SDS011;2532;52.480;13.354;2023-11-21T00:40:41;19.27;;;11.30;;
5026;SDS011;2532;52.480;13.354;2023-11-21T00:43:08;21.47;;;12.37;;
5026;SDS011;2532;52.480;13.354;2023-11-21T00:45:35;22.43;;;12.50;;
5026;SDS011;2532;52.480;13.354;2023-11-21T00:48:02;20.70;;;12.50;;
5026;SDS011;2532;52.480;13.354;2023-11-21T00:50:30;24.23;;;13.20;;
5026;SDS011;2532;52.480;13.354;2023-11-21T00:52:57;22.90;;;13.40;;
5026;SDS011;2532;52.480;13.354;2023-11-21T00:55:24;22.90;;;12.43;;
5026;SDS011;2532;52.480;13.354;2023-11-21T00:57:52;23.60;;;12.43;;
5026;SDS011;2532;52.480;13.354;2023-11-21T01:00:19;28.30;;;14.20;;
5026;SDS011;2532;52.480;13.354;2023-11-21T01:02:46;26.27;;;11.90;;
5026;SDS011;2532;52.480;13.354;2023-11-21T01:05:13;33.97;;;16.30;;
5026;SDS011;2532;52.480;13.354;2023-11-21T01:07:40;32.00;;;16.30;;
5026;SDS011;2532;52.480;13.354;2023-11-21T01:10:08;31.90;;;14.50;;
5026;SDS011;2532;52.480;13.354;2023-11-21T01:12:35;34.77;;;16.47;;
5026;SDS011;2532;52.480;13.354;2023-11-21T01:15:05;30.57;;;13.57;;
5026;SDS011;2532;52.480;13.354;2023-11-21T01:17:33;44.53;;;17.77;;
5026;SDS011;2532;52.480;13.354;2023-11-21T01:20:00;43.43;;;17.10;;
5026;SDS011;2532;52.480;13.354;2023-11-21T01:22:28;41.27;;;18.97;;
5026;SDS011;2532;52.480;13.354;2023-11-21T01:24:55;51.67;;;20.20;;
5026;SDS011;2532;52.480;13.354;2023-11-21T01:27:23;45.47;;;18.40;;
5026;SDS011;2532;52.480;13.354;2023-11-21T01:29:49;47.13;;;20.77;;
5026;SDS011;2532;52.480;13.354;2023-11-21T01:32:20;46.80;;;19.60;;
5026;SDS011;2532;52.480;13.354;2023-11-21T01:34:47;57.63;;;20.73;;
5026;SDS011;2532;52.480;13.354;2023-11-21T01:37:14;52.03;;;20.67;;
5026;SDS011;2532;52.480;13.354;2023-11-21T01:39:42;50.50;;;19.07;;
5026;SDS011;2532;52.480;13.354;2023-11-21T01:42:09;57.33;;;21.40;;
5026;SDS011;2532;52.480;13.354;2023-11-21T01:44:38;49.57;;;20.00;;
5026;SDS011;2532;52.480;13.354;2023-11-21T01:47:05;58.13;;;21.03;;
5026;SDS011;2532;52.480;13.354;2023-11-21T01:49:34;59.73;;;24.37;;
5026;SDS011;2532;52.480;13.354;2023-11-21T01:52:02;60.70;;;22.33;;
5026;SDS011;2532;52.480;13.354;2023-11-21T01:54:30;53.33;;;19.53;;
5026;SDS011;2532;52.480;13.354;2023-11-21T01:56:58;66.03;;;26.07;;
5026;SDS011;2532;52.480;13.354;2023-11-21T01:59:28;77.00;;;26.60;;
5026;SDS011;2532;52.480;13.354;2023-11-21T02:02:00;53.63;;;20.70;;
5026;SDS011;2532;52.480;13.354;2023-11-21T02:04:27;44.57;;;19.20;;
5026;SDS011;2532;52.480;13.354;2023-11-21T02:06:58;41.00;;;19.00;;
5026;SDS011;2532;52.480;13.354;2023-11-21T02:09:25;40.63;;;16.70;;
5026;SDS011;2532;52.480;13.354;2023-11-21T02:11:53;27.17;;;12.30;;
5026;SDS011;2532;52.480;13.354;2023-11-21T02:14:20;32.10;;;14.23;;
5026;SDS011;2532;52.480;13.354;2023-11-21T02:16:48;43.03;;;17.17;;
5026;SDS011;2532;52.480;13.354;2023-11-21T02:19:17;32.23;;;15.43;;
5026;SDS011;2532;52.480;13.354;2023-11-21T02:21:47;32.00;;;15.93;;
5026;SDS011;2532;52.480;13.354;2023-11-21T02:24:18;23.00;;;11.60;;
5026;SDS011;2532;52.480;13.354;2023-11-21T02:26:46;31.17;;;15.03;;
5026;SDS011;2532;52.480;13.354;2023-11-21T02:29:13;34.13;;;13.50;;
5026;SDS011;2532;52.480;13.354;2023-11-21T02:31:43;38.20;;;15.60;;
5026;SDS011;2532;52.480;13.354;2023-11-21T02:34:13;24.60;;;13.13;;
5026;SDS011;2532;52.480;13.354;2023-11-21T02:36:40;26.33;;;11.23;;
5026;SDS011;2532;52.480;13.354;2023-11-21T02:39:07;41.13;;;19.87;;
5026;SDS011;2532;52.480;13.354;2023-11-21T02:41:36;24.17;;;11.43;;
5026;SDS011;2532;52.480;13.354;2023-11-21T02:44:04;23.53;;;11.43;;
5026;SDS011;2532;52.480;13.354;2023-11-21T02:46:32;20.40;;;11.20;;
5026;SDS011;2532;52.480;13.354;2023-11-21T02:49:00;18.00;;;10.90;;
5026;SDS011;2532;52.480;13.354;2023-11-21T02:51:27;18.00;;;10.70;;
5026;SDS011;2532;52.480;13.354;2023-11-21T02:53:54;19.10;;;11.00;;
5026;SDS011;2532;52.480;13.354;2023-11-21T02:56:24;20.30;;;10.67;;
5026;SDS011;2532;52.480;13.354;2023-11-21T02:58:55;19.23;;;10.30;;
5026;SDS011;2532;52.480;13.354;2023-11-21T03:01:22;19.33;;;11.67;;
5026;SDS011;2532;52.480;13.354;2023-11-21T03:03:50;18.47;;;9.20;;
5026;SDS011;2532;52.480;13.354;2023-11-21T03:06:17;21.43;;;9.90;;
5026;SDS011;2532;52.480;13.354;2023-11-21T03:08:44;18.23;;;10.33;;
5026;SDS011;2532;52.480;13.354;2023-11-21T03:11:12;18.50;;;10.07;;
5026;SDS011;2532;52.480;13.354;2023-11-21T03:13:39;20.63;;;12.20;;
5026;SDS011;2532;52.480;13.354;2023-11-21T03:16:09;18.60;;;11.73;;
5026;SDS011;2532;52.480;13.354;2023-11-21T03:18:36;22.97;;;14.60;;
5026;SDS011;2532;52.480;13.354;2023-11-21T03:21:03;19.10;;;11.57;;
5026;SDS011;2532;52.480;13.354;2023-11-21T03:23:30;19.77;;;11.40;;
5026;SDS011;2532;52.480;13.354;2023-11-21T03:25:57;21.60;;;12.63;;
5026;SDS011;2532;52.480;13.354;2023-11-21T03:28:27;16.60;;;11.23;;
5026;SDS011;2532;52.480;13.354;2023-11-21T03:30:55;19.30;;;11.27;;
5026;SDS011;2532;52.480;13.354;2023-11-21T03:33:23;21.40;;;13.10;;
5026;SDS011;2532;52.480;13.354;2023-11-21T03:35:50;14.80;;;10.17;;
5026;SDS011;2532;52.480;13.354;2023-11-21T03:38:18;16.40;;;10.83;;
5026;SDS011;2532;52.480;13.354;2023-11-21T03:40:45;15.70;;;11.80;;
5026;SDS011;2532;52.480;13.354;2023-11-21T03:43:13;16.07;;;11.40;;
5026;SDS011;2532;52.480;13.354;2023-11-21T03:45:40;14.60;;;11.37;;
5026;SDS011;2532;52.480;13.354;2023-11-21T03:48:07;14.43;;;11.37;;
5026;SDS011;2532;52.480;13.354;2023-11-21T03:50:35;14.70;;;10.20;;
5026;SDS011;2532;52.480;13.354;2023-11-21T03:53:02;15.13;;;11.43;;
5026;SDS011;2532;52.480;13.354;2023-11-21T03:55:30;15.53;;;10.20;;
5026;SDS011;2532;52.480;13.354;2023-11-21T03:57:57;15.77;;;11.43;;
5026;SDS011;2532;52.480;13.354;2023-11-21T04:00:27;17.47;;;11.40;;
5026;SDS011;2532;52.480;13.354;2023-11-21T04:02:54;16.37;;;11.43;;
5026;SDS011;2532;52.480;13.354;2023-11-21T04:05:21;14.70;;;11.27;;
5026;SDS011;2532;52.480;13.354;2023-11-21T04:07:50;11.87;;;8.60;;
5026;SDS011;2532;52.480;13.354;2023-11-21T04:10:18;14.40;;;10.47;;
5026;SDS011;2532;52.480;13.354;2023-11-21T04:12:45;16.10;;;11.30;;
5026;SDS011;2532;52.480;13.354;2023-11-21T04:15:13;18.97;;;11.97;;
5026;SDS011;2532;52.480;13.354;2023-11-21T04:17:41;18.13;;;11.63;;
5026;SDS011;2532;52.480;13.354;2023-11-21T04:20:08;15.53;;;11.63;;
5026;SDS011;2532;52.480;13.354;2023-11-21T04:22:38;15.50;;;9.50;;
5026;SDS011;2532;52.480;13.354;2023-11-21T04:25:10;17.30;;;12.63;;
5026;SDS011;2532;52.480;13.354;2023-11-21T04:27:38;16.87;;;12.30;;
5026;SDS011;2532;52.480;13.354;2023-11-21T04:30:08;19.33;;;11.53;;
5026;SDS011;2532;52.480;13.354;2023-11-21T04:32:36;16.47;;;12.10;;
5026;SDS011;2532;52.480;13.354;2023-11-21T04:35:04;15.40;;;11.17;;
5026;SDS011;2532;52.480;13.354;2023-11-21T04:37:32;16.10;;;11.40;;
5026;SDS011;2532;52.480;13.354;2023-11-21T04:39:59;16.03;;;11.40;;
5026;SDS011;2532;52.480;13.354;2023-11-21T04:42:27;17.23;;;11.37;;
5026;SDS011;2532;52.480;13.354;2023-11-21T04:44:55;18.23;;;11.83;;
5026;SDS011;2532;52.480;13.354;2023-11-21T04:47:22;19.43;;;12.87;;
5026;SDS011;2532;52.480;13.354;2023-11-21T04:49:49;15.63;;;10.50;;
5026;SDS011;2532;52.480;13.354;2023-11-21T04:52:16;16.10;;;10.40;;
5026;SDS011;2532;52.480;13.354;2023-11-21T04:54:43;16.27;;;10.60;;
5026;SDS011;2532;52.480;13.354;2023-11-21T04:57:10;17.17;;;11.60;;
5026;SDS011;2532;52.480;13.354;2023-11-21T04:59:38;14.40;;;10.50;;
5026;SDS011;2532;52.480;13.354;2023-11-21T05:02:05;16.57;;;12.17;;
5026;SDS011;2532;52.480;13.354;2023-11-21T05:04:32;16.57;;;12.40;;
5026;SDS011;2532;52.480;13.354;2023-11-21T05:06:59;13.70;;;9.37;;
5026;SDS011;2532;52.480;13.354;2023-11-21T05:09:26;16.10;;;11.60;;
5026;SDS011;2532;52.480;13.354;2023-11-21T05:11:57;15.07;;;11.00;;
5026;SDS011;2532;52.480;13.354;2023-11-21T05:14:25;15.53;;;10.13;;
5026;SDS011;2532;52.480;13.354;2023-11-21T05:16:54;12.47;;;8.63;;
5026;SDS011;2532;52.480;13.354;2023-11-21T05:19:21;13.20;;;10.50;;
5026;SDS011;2532;52.480;13.354;2023-11-21T05:21:48;15.33;;;9.80;;
5026;SDS011;2532;52.480;13.354;2023-11-21T05:24:15;15.60;;;10.53;;
5026;SDS011;2532;52.480;13.354;2023-11-21T05:26:42;15.60;;;9.50;;
5026;SDS011;2532;52.480;13.354;2023-11-21T05:29:09;12.90;;;8.90;;
5026;SDS011;2532;52.480;13.354;2023-11-21T05:31:36;14.90;;;9.20;;
5026;SDS011;2532;52.480;13.354;2023-11-21T05:34:04;17.43;;;10.27;;
5026;SDS011;2532;52.480;13.354;2023-11-21T05:36:31;12.60;;;9.63;;
5026;SDS011;2532;52.480;13.354;2023-11-21T05:38:58;13.97;;;10.00;;
5026;SDS011;2532;52.480;13.354;2023-11-21T05:41:25;12.67;;;8.73;;
5026;SDS011;2532;52.480;13.354;2023-11-21T05:43:52;13.30;;;9.90;;
5026;SDS011;2532;52.480;13.354;2023-11-21T05:46:19;15.63;;;10.17;;
5026;SDS011;2532;52.480;13.354;2023-11-21T05:48:46;12.80;;;9.07;;
5026;SDS011;2532;52.480;13.354;2023-11-21T05:51:15;16.33;;;11.00;;
5026;SDS011;2532;52.480;13.354;2023-11-21T05:53:42;16.10;;;11.30;;
5026;SDS011;2532;52.480;13.354;2023-11-21T05:56:09;12.87;;;9.37;;
5026;SDS011;2532;52.480;13.354;2023-11-21T05:58:38;12.83;;;9.60;;
5026;SDS011;2532;52.480;13.354;2023-11-21T06:01:05;16.33;;;9.70;;
5026;SDS011;2532;52.480;13.354;2023-11-21T06:03:34;15.80;;;11.13;;
5026;SDS011;2532;52.480;13.354;2023-11-21T06:06:01;11.27;;;7.47;;
5026;SDS011;2532;52.480;13.354;2023-11-21T06:08:30;13.27;;;9.20;;
5026;SDS011;2532;52.480;13.354;2023-11-21T06:10:57;12.40;;;9.20;;
5026;SDS011;2532;52.480;13.354;2023-11-21T06:13:24;12.40;;;9.60;;
5026;SDS011;2532;52.480;13.354;2023-11-21T06:15:51;13.33;;;8.87;;
5026;SDS011;2532;52.480;13.354;2023-11-21T06:18:18;14.80;;;8.97;;
5026;SDS011;2532;52.480;13.354;2023-11-21T06:20:45;13.00;;;9.80;;
5026;SDS011;2532;52.480;13.354;2023-11-21T06:23:13;12.10;;;8.83;;
5026;SDS011;2532;52.480;13.354;2023-11-21T06:25:42;12.80;;;9.17;;
5026;SDS011;2532;52.480;13.354;2023-11-21T06:28:09;12.53;;;8.00;;
5026;SDS011;2532;52.480;13.354;2023-11-21T06:30:37;12.33;;;9.17;;
5026;SDS011;2532;52.480;13.354;2023-11-21T06:33:04;10.90;;;8.50;;
5026;SDS011;2532;52.480;13.354;2023-11-21T06:35:31;12.10;;;8.60;;
5026;SDS011;2532;52.480;13.354;2023-11-21T06:38:00;10.97;;;8.67;;
5026;SDS011;2532;52.480;13.354;2023-11-21T06:40:27;11.23;;;8.37;;
5026;SDS011;2532;52.480;13.354;2023-11-21T06:42:56;9.70;;;6.50;;
5026;SDS011;2532;52.480;13.354;2023-11-21T06:45:23;9.87;;;8.00;;
5026;SDS011;2532;52.480;13.354;2023-11-21T06:47:50;10.57;;;8.60;;
5026;SDS011;2532;52.480;13.354;2023-11-21T06:50:17;9.50;;;7.57;;
5026;SDS011;2532;52.480;13.354;2023-11-21T06:52:48;11.77;;;8.03;;
5026;SDS011;2532;52.480;13.354;2023-11-21T06:55:16;9.77;;;7.80;;
5026;SDS011;2532;52.480;13.354;2023-11-21T06:57:42;10.20;;;6.87;;
5026;SDS011;2532;52.480;13.354;2023-11-21T07:00:11;9.37;;;6.87;;
5026;SDS011;2532;52.480;13.354;2023-11-21T07:02:40;10.33;;;7.60;;
5026;SDS011;2532;52.480;13.354;2023-11-21T07:05:07;11.37;;;9.00;;
5026;SDS011;2532;52.480;13.354;2023-11-21T07:07:34;10.73;;;8.30;;
5026;SDS011;2532;52.480;13.354;2023-11-21T07:10:02;10.40;;;7.07;;
5026;SDS011;2532;52.480;13.354;2023-11-21T07:12:30;11.77;;;8.37;;
5026;SDS011;2532;52.480;13.354;2023-11-21T07:14:57;10.63;;;8.07;;
5026;SDS011;2532;52.480;13.354;2023-11-21T07:17:26;12.70;;;7.33;;
5026;SDS011;2532;52.480;13.354;2023-11-21T07:19:53;11.80;;;8.37;;
5026;SDS011;2532;52.480;13.354;2023-11-21T07:22:20;10.93;;;8.77;;
5026;SDS011;2532;52.480;13.354;2023-11-21T07:24:51;11.17;;;8.73;;
5026;SDS011;2532;52.480;13.354;2023-11-21T07:27:18;10.97;;;7.77;;
5026;SDS011;2532;52.480;13.354;2023-11-21T07:29:45;9.70;;;7.00;;
5026;SDS011;2532;52.480;13.354;2023-11-21T07:32:13;12.90;;;7.90;;
5026;SDS011;2532;52.480;13.354;2023-11-21T07:34:42;11.50;;;8.17;;
5026;SDS011;2532;52.480;13.354;2023-11-21T07:37:09;8.73;;;6.47;;
5026;SDS011;2532;52.480;13.354;2023-11-21T07:39:36;9.90;;;8.13;;
5026;SDS011;2532;52.480;13.354;2023-11-21T07:42:06;15.20;;;10.00;;
5026;SDS011;2532;52.480;13.354;2023-11-21T07:44:34;12.50;;;8.50;;
5026;SDS011;2532;52.480;13.354;2023-11-21T07:47:01;10.83;;;7.20;;
5026;SDS011;2532;52.480;13.354;2023-11-21T07:49:29;12.33;;;8.90;;
5026;SDS011;2532;52.480;13.354;2023-11-21T07:51:58;13.43;;;7.63;;
5026;SDS011;2532;52.480;13.354;2023-11-21T07:54:25;13.87;;;8.53;;
5026;SDS011;2532;52.480;13.354;2023-11-21T07:56:51;10.17;;;7.20;;
5026;SDS011;2532;52.480;13.354;2023-11-21T07:59:19;11.30;;;9.17;;
5026;SDS011;2532;52.480;13.354;2023-11-21T08:01:46;11.37;;;9.00;;
5026;SDS011;2532;52.480;13.354;2023-11-21T08:04:13;10.77;;;7.40;;
5026;SDS011;2532;52.480;13.354;2023-11-21T08:06:40;10.17;;;8.10;;
5026;SDS011;2532;52.480;13.354;2023-11-21T08:09:09;11.77;;;9.20;;
5026;SDS011;2532;52.480;13.354;2023-11-21T08:11:37;11.20;;;8.67;;
5026;SDS011;2532;52.480;13.354;2023-11-21T08:14:04;11.43;;;6.37;;
5026;SDS011;2532;52.480;13.354;2023-11-21T08:16:31;8.40;;;6.40;;
5026;SDS011;2532;52.480;13.354;2023-11-21T08:18:58;9.23;;;6.20;;
5026;SDS011;2532;52.480;13.354;2023-11-21T08:21:26;11.27;;;7.60;;
5026;SDS011;2532;52.480;13.354;2023-11-21T08:23:54;8.70;;;5.67;;
5026;SDS011;2532;52.480;13.354;2023-11-21T08:26:22;7.47;;;6.30;;
5026;SDS011;2532;52.480;13.354;2023-11-21T08:28:49;12.43;;;6.33;;
5026;SDS011;2532;52.480;13.354;2023-11-21T08:31:23;7.27;;;5.50;;
5026;SDS011;2532;52.480;13.354;2023-11-21T08:33:51;9.20;;;6.40;;
5026;SDS011;2532;52.480;13.354;2023-11-21T08:36:20;8.17;;;5.73;;
5026;SDS011;2532;52.480;13.354;2023-11-21T08:38:48;8.20;;;6.37;;
5026;SDS011;2532;52.480;13.354;2023-11-21T08:41:15;7.07;;;5.33;;
5026;SDS011;2532;52.480;13.354;2023-11-21T08:43:43;7.63;;;5.33;;
5026;SDS011;2532;52.480;13.354;2023-11-21T08:46:10;7.43;;;6.00;;
5026;SDS011;2532;52.480;13.354;2023-11-21T08:48:37;10.03;;;6.53;;
5026;SDS011;2532;52.480;13.354;2023-11-21T08:51:04;8.07;;;5.73;;
5026;SDS011;2532;52.480;13.354;2023-11-21T08:53:31;8.50;;;6.83;;
5026;SDS011;2532;52.480;13.354;2023-11-21T08:55:59;8.83;;;4.83;;
5026;SDS011;2532;52.480;13.354;2023-11-21T08:58:26;9.97;;;6.27;;
5026;SDS011;2532;52.480;13.354;2023-11-21T09:00:54;11.03;;;6.40;;
5026;SDS011;2532;52.480;13.354;2023-11-21T09:03:21;7.40;;;5.10;;
5026;SDS011;2532;52.480;13.354;2023-11-21T09:05:48;10.63;;;6.50;;
5026;SDS011;2532;52.480;13.354;2023-11-21T09:08:15;7.47;;;5.60;;
5026;SDS011;2532;52.480;13.354;2023-11-21T09:10:42;10.73;;;6.13;;
5026;SDS011;2532;52.480;13.354;2023-11-21T09:13:12;10.37;;;5.63;;
5026;SDS011;2532;52.480;13.354;2023-11-21T09:15:41;11.60;;;6.13;;
5026;SDS011;2532;52.480;13.354;2023-11-21T09:18:12;10.60;;;6.10;;
5026;SDS011;2532;52.480;13.354;2023-11-21T09:20:39;11.00;;;5.87;;
5026;SDS011;2532;52.480;13.354;2023-11-21T09:23:07;13.30;;;5.97;;
5026;SDS011;2532;52.480;13.354;2023-11-21T09:25:34;12.70;;;6.50;;
5026;SDS011;2532;52.480;13.354;2023-11-21T09:28:02;13.33;;;6.97;;
5026;SDS011;2532;52.480;13.354;2023-11-21T09:30:32;10.07;;;5.90;;
5026;SDS011;2532;52.480;13.354;2023-11-21T09:32:59;11.67;;;7.20;;
5026;SDS011;2532;52.480;13.354;2023-11-21T09:35:28;14.53;;;7.57;;
5026;SDS011;2532;52.480;13.354;2023-11-21T09:37:55;18.33;;;8.20;;
5026;SDS011;2532;52.480;13.354;2023-11-21T09:40:22;13.93;;;7.37;;
5026;SDS011;2532;52.480;13.354;2023-11-21T09:42:54;16.00;;;8.17;;
5026;SDS011;2532;52.480;13.354;2023-11-21T09:45:24;20.17;;;8.47;;
5026;SDS011;2532;52.480;13.354;2023-11-21T09:47:53;14.27;;;7.80;;
5026;SDS011;2532;52.480;13.354;2023-11-21T09:50:21;18.57;;;8.37;;
5026;SDS011;2532;52.480;13.354;2023-11-21T09:52:52;13.93;;;6.63;;
5026;SDS011;2532;52.480;13.354;2023-11-21T09:55:23;15.37;;;7.80;;
5026;SDS011;2532;52.480;13.354;2023-11-21T09:57:53;16.90;;;8.23;;
5026;SDS011;2532;52.480;13.354;2023-11-21T10:00:22;11.57;;;6.30;;
5026;SDS011;2532;52.480;13.354;2023-11-21T10:02:49;14.60;;;7.30;;
5026;SDS011;2532;52.480;13.354;2023-11-21T10:05:18;15.70;;;8.10;;
5026;SDS011;2532;52.480;13.354;2023-11-21T10:07:46;15.17;;;8.27;;
5026;SDS011;2532;52.480;13.354;2023-11-21T10:10:18;11.87;;;7.03;;
5026;SDS011;2532;52.480;13.354;2023-11-21T10:12:48;14.33;;;6.97;;
5026;SDS011;2532;52.480;13.354;2023-11-21T10:15:18;17.07;;;8.17;;
5026;SDS011;2532;52.480;13.354;2023-11-21T10:17:48;9.00;;;5.90;;
5026;SDS011;2532;52.480;13.354;2023-11-21T10:20:18;15.70;;;7.63;;
5026;SDS011;2532;52.480;13.354;2023-11-21T10:22:46;14.07;;;7.70;;
5026;SDS011;2532;52.480;13.354;2023-11-21T10:25:13;11.17;;;5.90;;
5026;SDS011;2532;52.480;13.354;2023-11-21T10:27:42;14.27;;;7.07;;
5026;SDS011;2532;52.480;13.354;2023-11-21T10:30:09;10.60;;;7.00;;
5026;SDS011;2532;52.480;13.354;2023-11-21T10:32:37;15.43;;;8.57;;
5026;SDS011;2532;52.480;13.354;2023-11-21T10:35:05;14.43;;;8.00;;
5026;SDS011;2532;52.480;13.354;2023-11-21T10:37:35;15.13;;;8.07;;
5026;SDS011;2532;52.480;13.354;2023-11-21T10:40:04;15.80;;;7.40;;
5026;SDS011;2532;52.480;13.354;2023-11-21T10:42:32;14.17;;;8.03;;
5026;SDS011;2532;52.480;13.354;2023-11-21T10:45:01;16.83;;;8.07;;
5026;SDS011;2532;52.480;13.354;2023-11-21T10:47:30;12.90;;;9.20;;
5026;SDS011;2532;52.480;13.354;2023-11-21T10:49:58;11.90;;;8.43;;
5026;SDS011;2532;52.480;13.354;2023-11-21T10:52:27;14.00;;;6.87;;
5026;SDS011;2532;52.480;13.354;2023-11-21T10:54:54;9.13;;;6.33;;
5026;SDS011;2532;52.480;13.354;2023-11-21T10:57:24;10.00;;;6.70;;
5026;SDS011;2532;52.480;13.354;2023-11-21T10:59:51;11.60;;;6.53;;
5026;SDS011;2532;52.480;13.354;2023-11-21T11:02:22;9.60;;;5.97;;
5026;SDS011;2532;52.480;13.354;2023-11-21T11:04:53;5.57;;;4.93;;
5026;SDS011;2532;52.480;13.354;2023-11-21T11:07:21;8.87;;;5.00;;
5026;SDS011;2532;52.480;13.354;2023-11-21T11:09:52;7.93;;;6.40;;
5026;SDS011;2532;52.480;13.354;2023-11-21T11:12:20;8.00;;;4.97;;
5026;SDS011;2532;52.480;13.354;2023-11-21T11:14:47;6.47;;;4.77;;
5026;SDS011;2532;52.480;13.354;2023-11-21T11:17:15;4.53;;;4.00;;
5026;SDS011;2532;52.480;13.354;2023-11-21T11:19:46;7.00;;;5.20;;
5026;SDS011;2532;52.480;13.354;2023-11-21T11:22:19;5.90;;;5.13;;
5026;SDS011;2532;52.480;13.354;2023-11-21T11:27:54;6.37;;;5.47;;
5026;SDS011;2532;52.480;13.354;2023-11-21T11:30:28;6.93;;;5.77;;
5026;SDS011;2532;52.480;13.354;2023-11-21T11:33:08;5.50;;;5.00;;
5026;SDS011;2532;52.480;13.354;2023-11-21T11:35:45;6.47;;;5.63;;
5026;SDS011;2532;52.480;13.354;2023-11-21T11:38:20;7.10;;;5.07;;
5026;SDS011;2532;52.480;13.354;2023-11-21T11:40:48;6.00;;;5.37;;
5026;SDS011;2532;52.480;13.354;2023-11-21T11:43:24;8.63;;;4.97;;
5026;SDS011;2532;52.480;13.354;2023-11-21T11:45:51;8.00;;;5.90;;
5026;SDS011;2532;52.480;13.354;2023-11-21T11:48:21;13.27;;;8.43;;
5026;SDS011;2532;52.480;13.354;2023-11-21T11:53:39;7.73;;;5.73;;
5026;SDS011;2532;52.480;13.354;2023-11-21T11:56:23;5.80;;;5.20;;
5026;SDS011;2532;52.480;13.354;2023-11-21T11:58:52;6.97;;;5.50;;
5026;SDS011;2532;52.480;13.354;2023-11-21T12:01:21;7.10;;;5.37;;
5026;SDS011;2532;52.480;13.354;2023-11-21T12:06:57;5.30;;;4.80;;
5026;SDS011;2532;52.480;13.354;2023-11-21T12:09:27;7.47;;;5.03;;
5026;SDS011;2532;52.480;13.354;2023-11-21T12:11:56;5.70;;;4.60;;
5026;SDS011;2532;52.480;13.354;2023-11-21T12:14:23;7.10;;;5.10;;
5026;SDS011;2532;52.480;13.354;2023-11-21T12:16:50;5.77;;;5.20;;
5026;SDS011;2532;52.480;13.354;2023-11-21T12:19:18;5.90;;;5.30;;
5026;SDS011;2532;52.480;13.354;2023-11-21T12:21:47;5.53;;;4.93;;
5026;SDS011;2532;52.480;13.354;2023-11-21T12:24:16;5.90;;;4.70;;
5026;SDS011;2532;52.480;13.354;2023-11-21T12:26:44;7.83;;;5.90;;
5026;SDS011;2532;52.480;13.354;2023-11-21T12:29:11;6.90;;;5.23;;
5026;SDS011;2532;52.480;13.354;2023-11-21T12:31:38;6.70;;;5.60;;
5026;SDS011;2532;52.480;13.354;2023-11-21T12:34:06;7.40;;;4.37;;
5026;SDS011;2532;52.480;13.354;2023-11-21T12:36:36;5.17;;;4.67;;
5026;SDS011;2532;52.480;13.354;2023-11-21T12:39:04;6.60;;;5.60;;
5026;SDS011;2532;52.480;13.354;2023-11-21T12:41:32;7.73;;;5.43;;
5026;SDS011;2532;52.480;13.354;2023-11-21T12:44:00;5.80;;;4.87;;
5026;SDS011;2532;52.480;13.354;2023-11-21T12:46:40;5.70;;;5.10;;
5026;SDS011;2532;52.480;13.354;2023-11-21T12:49:10;6.13;;;5.23;;
5026;SDS011;2532;52.480;13.354;2023-11-21T12:51:42;6.80;;;5.70;;
5026;SDS011;2532;52.480;13.354;2023-11-21T12:54:09;6.40;;;5.63;;
5026;SDS011;2532;52.480;13.354;2023-11-21T12:56:39;5.80;;;4.93;;
5026;SDS011;2532;52.480;13.354;2023-11-21T12:59:06;5.40;;;4.10;;
5026;SDS011;2532;52.480;13.354;2023-11-21T13:01:38;5.70;;;4.77;;
5026;SDS011;2532;52.480;13.354;2023-11-21T13:04:08;8.07;;;5.00;;
5026;SDS011;2532;52.480;13.354;2023-11-21T13:06:36;5.87;;;4.67;;
5026;SDS011;2532;52.480;13.354;2023-11-21T13:09:06;6.83;;;4.37;;
5026;SDS011;2532;52.480;13.354;2023-11-21T13:11:35;6.80;;;5.70;;
5026;SDS011;2532;52.480;13.354;2023-11-21T13:14:07;7.70;;;5.63;;
5026;SDS011;2532;52.480;13.354;2023-11-21T13:16:36;8.80;;;6.30;;
5026;SDS011;2532;52.480;13.354;2023-11-21T13:19:11;7.37;;;5.60;;
5026;SDS011;2532;52.480;13.354;2023-11-21T13:21:38;8.67;;;6.70;;
5026;SDS011;2532;52.480;13.354;2023-11-21T13:24:05;10.77;;;6.50;;
5026;SDS011;2532;52.480;13.354;2023-11-21T13:26:32;10.40;;;6.80;;
5026;SDS011;2532;52.480;13.354;2023-11-21T13:28:59;9.87;;;7.03;;
5026;SDS011;2532;52.480;13.354;2023-11-21T13:31:31;10.80;;;7.30;;
5026;SDS011;2532;52.480;13.354;2023-11-21T13:34:01;9.73;;;6.73;;
5026;SDS011;2532;52.480;13.354;2023-11-21T13:36:30;8.63;;;6.67;;
5026;SDS011;2532;52.480;13.354;2023-11-21T13:38:58;15.27;;;7.23;;
5026;SDS011;2532;52.480;13.354;2023-11-21T13:41:30;21.37;;;10.27;;
5026;SDS011;2532;52.480;13.354;2023-11-21T13:43:57;10.40;;;6.67;;
5026;SDS011;2532;52.480;13.354;2023-11-21T13:46:32;15.67;;;10.10;;
5026;SDS011;2532;52.480;13.354;2023-11-21T13:49:02;14.63;;;9.10;;
5026;SDS011;2532;52.480;13.354;2023-11-21T13:51:35;10.77;;;7.83;;
5026;SDS011;2532;52.480;13.354;2023-11-21T13:54:05;14.03;;;7.90;;
5026;SDS011;2532;52.480;13.354;2023-11-21T13:56:34;12.90;;;8.60;;
5026;SDS011;2532;52.480;13.354;2023-11-21T13:59:02;12.87;;;8.77;;
5026;SDS011;2532;52.480;13.354;2023-11-21T14:01:40;10.70;;;7.77;;
5026;SDS011;2532;52.480;13.354;2023-11-21T14:04:20;12.17;;;7.73;;
5026;SDS011;2532;52.480;13.354;2023-11-21T14:07:00;12.40;;;7.47;;
5026;SDS011;2532;52.480;13.354;2023-11-21T14:09:44;13.07;;;8.60;;
5026;SDS011;2532;52.480;13.354;2023-11-21T14:12:10;10.43;;;8.13;;
5026;SDS011;2532;52.480;13.354;2023-11-21T14:14:39;17.07;;;12.20;;
5026;SDS011;2532;52.480;13.354;2023-11-21T14:17:08;18.53;;;11.17;;
5026;SDS011;2532;52.480;13.354;2023-11-21T14:19:35;20.23;;;13.30;;
5026;SDS011;2532;52.480;13.354;2023-11-21T14:22:05;19.00;;;12.50;;
5026;SDS011;2532;52.480;13.354;2023-11-21T14:24:34;20.73;;;12.17;;
5026;SDS011;2532;52.480;13.354;2023-11-21T14:27:02;19.70;;;12.77;;
5026;SDS011;2532;52.480;13.354;2023-11-21T14:29:30;16.90;;;11.77;;
5026;SDS011;2532;52.480;13.354;2023-11-21T14:32:02;18.63;;;12.30;;
5026;SDS011;2532;52.480;13.354;2023-11-21T14:34:32;19.73;;;13.03;;
5026;SDS011;2532;52.480;13.354;2023-11-21T14:37:01;27.80;;;16.47;;
5026;SDS011;2532;52.480;13.354;2023-11-21T14:39:29;22.40;;;15.97;;
5026;SDS011;2532;52.480;13.354;2023-11-21T14:42:00;22.00;;;15.43;;
5026;SDS011;2532;52.480;13.354;2023-11-21T14:44:28;22.50;;;16.23;;
5026;SDS011;2532;52.480;13.354;2023-11-21T14:47:00;24.00;;;16.50;;
5026;SDS011;2532;52.480;13.354;2023-11-21T14:49:33;25.30;;;16.43;;
5026;SDS011;2532;52.480;13.354;2023-11-21T14:52:13;24.43;;;15.37;;
5026;SDS011;2532;52.480;13.354;2023-11-21T14:54:56;28.50;;;17.60;;
5026;SDS011;2532;52.480;13.354;2023-11-21T14:57:44;24.87;;;16.67;;
5026;SDS011;2532;52.480;13.354;2023-11-21T15:00:15;27.77;;;17.97;;
5026;SDS011;2532;52.480;13.354;2023-11-21T15:02:56;27.70;;;16.40;;